Time;durP1;ratioP1;P1;durP2;ratioP2;P2;SDS_P1;SDS_P2;PMS_P1;PMS_P2;Temp;Humidity;BMP_temperature;BMP_pressure;BME280_temperature;BME280_humidity;BME280_pressure;Samples;Min_cycle;Max_cycle;Signal;HPM_P1;HPM_P2
2021/04/01 00:02:11;;;;;;;18.80;13.97;;;;;;;;;;5094276;28;20495;-62
2021/04/01 00:04:38;;;;;;;21.33;15.03;;;;;;;;;;5095461;28;20458;-61
2021/04/01 00:07:05;;;;;;;17.30;13.33;;;;;;;;;;5096304;28;20458;-62
2021/04/01 00:09:32;;;;;;;18.60;15.40;;;;;;;;;;5099136;28;20478;-61
2021/04/01 00:11:58;;;;;;;18.03;13.93;;;;;;;;;;5099240;28;20438;-60
2021/04/01 00:14:26;;;;;;;16.60;14.03;;;;;;;;;;5100238;28;20830;-61
2021/04/01 00:16:53;;;;;;;17.80;13.97;;;;;;;;;;5103588;28;20441;-61
2021/04/01 00:19:20;;;;;;;20.83;14.60;;;;;;;;;;5105492;28;20471;-61
2021/04/01 00:21:47;;;;;;;18.83;14.83;;;;;;;;;;5106870;28;20457;-60
2021/04/01 00:24:13;;;;;;;24.37;14.50;;;;;;;;;;5103497;28;20462;-60
2021/04/01 00:26:40;;;;;;;20.33;14.83;;;;;;;;;;5105189;28;20453;-61
2021/04/01 00:29:07;;;;;;;20.07;14.27;;;;;;;;;;5101460;28;20474;-61
2021/04/01 00:31:34;;;;;;;21.33;15.70;;;;;;;;;;5101856;28;20465;-60
2021/04/01 00:34:01;;;;;;;18.33;14.87;;;;;;;;;;5101216;28;20503;-61
2021/04/01 00:36:28;;;;;;;18.27;13.70;;;;;;;;;;5101642;28;20446;-60
2021/04/01 00:38:55;;;;;;;24.30;14.37;;;;;;;;;;5100363;28;20454;-61
2021/04/01 00:41:21;;;;;;;23.47;15.07;;;;;;;;;;5099229;28;20784;-60
2021/04/01 00:43:48;;;;;;;19.83;15.37;;;;;;;;;;5098509;28;20446;-62
2021/04/01 00:46:15;;;;;;;17.40;13.77;;;;;;;;;;5099078;28;20543;-61
2021/04/01 00:48:42;;;;;;;17.97;13.73;;;;;;;;;;5098743;28;20841;-61
2021/04/01 00:51:09;;;;;;;19.83;15.03;;;;;;;;;;5099291;28;20502;-60
2021/04/01 00:53:36;;;;;;;23.23;15.10;;;;;;;;;;5097779;28;20448;-62
2021/04/01 00:56:03;;;;;;;24.27;16.67;;;;;;;;;;5097207;28;20457;-62
2021/04/01 00:58:30;;;;;;;19.93;14.97;;;;;;;;;;5096876;28;20523;-62
2021/04/01 01:01:08;;;;;;;20.97;15.50;;;;;;;;;;5097723;28;20488;-62
2021/04/01 01:03:35;;;;;;;23.57;16.03;;;;;;;;;;5097012;28;20465;-62
2021/04/01 01:06:02;;;;;;;20.63;14.97;;;;;;;;;;5096908;28;20481;-61
2021/04/01 01:08:29;;;;;;;21.20;15.30;;;;;;;;;;5099971;28;20499;-61
2021/04/01 01:10:56;;;;;;;21.17;15.10;;;;;;;;;;5096450;28;21074;-62
2021/04/01 01:13:23;;;;;;;21.07;14.93;;;;;;;;;;5096407;28;20438;-61
2021/04/01 01:15:49;;;;;;;19.63;13.57;;;;;;;;;;5096588;28;20650;-62
2021/04/01 01:18:16;;;;;;;16.77;14.10;;;;;;;;;;5096643;28;20442;-62
2021/04/01 01:20:45;;;;;;;20.27;13.73;;;;;;;;;;5096732;28;20810;-62
2021/04/01 01:23:12;;;;;;;24.10;17.53;;;;;;;;;;5096643;28;20594;-61
2021/04/01 01:25:41;;;;;;;19.13;12.90;;;;;;;;;;5096256;28;20977;-61
2021/04/01 01:28:08;;;;;;;18.50;13.60;;;;;;;;;;5096121;28;21024;-61
2021/04/01 01:30:35;;;;;;;18.83;15.53;;;;;;;;;;5096479;28;20445;-60
2021/04/01 01:33:04;;;;;;;18.97;14.47;;;;;;;;;;5096003;28;21021;-62
2021/04/01 01:35:32;;;;;;;18.03;14.30;;;;;;;;;;5095465;28;20469;-61
2021/04/01 01:38:00;;;;;;;22.23;16.03;;;;;;;;;;5096350;28;20446;-62
2021/04/01 01:40:27;;;;;;;21.13;14.40;;;;;;;;;;5095850;28;20453;-62
2021/04/01 01:42:56;;;;;;;18.10;14.80;;;;;;;;;;5096058;28;20464;-61
2021/04/01 01:45:23;;;;;;;20.60;13.80;;;;;;;;;;5095990;28;20462;-62
2021/04/01 01:47:49;;;;;;;17.23;14.20;;;;;;;;;;5095676;28;20446;-62
2021/04/01 01:50:17;;;;;;;17.27;14.43;;;;;;;;;;5095917;28;20442;-62
2021/04/01 01:52:44;;;;;;;18.47;13.07;;;;;;;;;;5096045;28;20443;-62
2021/04/01 01:55:12;;;;;;;18.33;13.87;;;;;;;;;;5095583;28;20507;-62
2021/04/01 01:57:39;;;;;;;19.40;13.87;;;;;;;;;;5096655;28;20442;-62
2021/04/01 02:00:08;;;;;;;15.77;14.07;;;;;;;;;;5097189;28;20468;-61
2021/04/01 02:02:35;;;;;;;16.60;13.07;;;;;;;;;;5097147;28;20443;-61
2021/04/01 02:05:01;;;;;;;18.87;14.67;;;;;;;;;;5098631;28;20477;-61
2021/04/01 02:07:28;;;;;;;17.63;13.67;;;;;;;;;;5096758;28;20461;-61
2021/04/01 02:09:55;;;;;;;22.13;16.47;;;;;;;;;;5103176;28;20618;-61
2021/04/01 02:12:21;;;;;;;21.53;15.67;;;;;;;;;;5103755;28;20922;-62
2021/04/01 02:14:48;;;;;;;18.43;14.87;;;;;;;;;;5100713;28;20458;-61
2021/04/01 02:17:20;;;;;;;19.43;14.33;;;;;;;;;;5102318;28;20438;-61
2021/04/01 02:19:47;;;;;;;15.17;13.57;;;;;;;;;;5099742;28;20431;-62
2021/04/01 02:22:13;;;;;;;18.70;14.87;;;;;;;;;;5097479;28;20442;-61
2021/04/01 02:24:40;;;;;;;19.30;14.80;;;;;;;;;;5096514;28;20470;-61
2021/04/01 02:27:07;;;;;;;20.40;15.10;;;;;;;;;;5095933;28;20992;-62
2021/04/01 02:29:34;;;;;;;19.80;15.70;;;;;;;;;;5096089;28;20543;-62
2021/04/01 02:32:01;;;;;;;19.07;16.03;;;;;;;;;;5099521;28;20458;-61
2021/04/01 02:34:28;;;;;;;23.57;15.03;;;;;;;;;;5102145;28;20985;-62
2021/04/01 02:36:55;;;;;;;17.77;14.60;;;;;;;;;;5099156;28;20469;-61
2021/04/01 02:39:22;;;;;;;20.63;15.93;;;;;;;;;;5095962;28;20839;-60
2021/04/01 02:41:49;;;;;;;19.23;16.17;;;;;;;;;;5095112;28;20446;-61
2021/04/01 02:44:15;;;;;;;22.57;16.60;;;;;;;;;;5094744;28;20457;-61
2021/04/01 02:46:42;;;;;;;19.20;17.20;;;;;;;;;;5094017;28;20447;-62
2021/04/01 02:49:09;;;;;;;20.13;14.93;;;;;;;;;;5094889;28;20528;-61
2021/04/01 02:51:37;;;;;;;19.23;16.73;;;;;;;;;;5094717;28;20449;-61
2021/04/01 02:54:03;;;;;;;21.70;16.00;;;;;;;;;;5094406;28;20865;-61
2021/04/01 02:56:30;;;;;;;19.30;15.63;;;;;;;;;;5094848;28;20437;-61
2021/04/01 02:58:57;;;;;;;20.07;17.13;;;;;;;;;;5094813;28;20438;-61
2021/04/01 03:01:24;;;;;;;19.67;16.20;;;;;;;;;;5094719;28;20517;-62
2021/04/01 03:03:53;;;;;;;18.63;16.07;;;;;;;;;;5094674;28;20442;-62
2021/04/01 03:06:20;;;;;;;19.67;16.00;;;;;;;;;;5094051;28;20511;-60
2021/04/01 03:08:48;;;;;;;17.67;14.97;;;;;;;;;;5094351;28;20485;-59
2021/04/01 03:11:14;;;;;;;20.30;15.47;;;;;;;;;;5094104;28;20454;-60
2021/04/01 03:13:41;;;;;;;22.03;16.53;;;;;;;;;;5094516;28;20492;-60
2021/04/01 03:16:08;;;;;;;24.60;16.23;;;;;;;;;;5094202;28;20465;-60
2021/04/01 03:18:35;;;;;;;20.63;15.33;;;;;;;;;;5094234;28;20438;-60
2021/04/01 03:21:01;;;;;;;20.57;15.50;;;;;;;;;;5094750;28;20922;-61
2021/04/01 03:23:30;;;;;;;22.67;16.70;;;;;;;;;;5093838;28;21002;-61
2021/04/01 03:25:57;;;;;;;24.27;16.17;;;;;;;;;;5093775;28;20466;-60
2021/04/01 03:28:24;;;;;;;22.20;14.50;;;;;;;;;;5093645;28;20993;-62
2021/04/01 03:30:55;;;;;;;20.53;14.73;;;;;;;;;;5094115;28;20804;-61
2021/04/01 03:33:22;;;;;;;22.73;16.00;;;;;;;;;;5093734;28;20927;-60
2021/04/01 03:35:49;;;;;;;24.77;17.63;;;;;;;;;;5094485;28;20462;-61
2021/04/01 03:38:17;;;;;;;24.33;17.70;;;;;;;;;;5093944;28;20438;-61
2021/04/01 03:40:44;;;;;;;24.87;16.07;;;;;;;;;;5093977;28;20500;-61
2021/04/01 03:43:12;;;;;;;27.97;17.57;;;;;;;;;;5093545;28;20449;-61
2021/04/01 03:45:39;;;;;;;21.80;15.90;;;;;;;;;;5093749;28;20487;-61
2021/04/01 03:48:06;;;;;;;23.90;16.23;;;;;;;;;;5093801;28;20985;-61
2021/04/01 03:50:33;;;;;;;23.73;16.50;;;;;;;;;;5093940;28;20450;-60
2021/04/01 03:52:59;;;;;;;25.00;16.33;;;;;;;;;;5093853;28;20847;-61
2021/04/01 04:01:09;;;;;;;24.80;16.03;;;;;;;;;;5093788;28;20394;-61
2021/04/01 04:03:43;;;;;;;36.83;18.17;;;;;;;;;;5094006;28;20921;-61
2021/04/01 04:08:16;;;;;;;22.40;15.67;;;;;;;;;;5092679;27;20545;-61
2021/04/01 04:10:49;;;;;;;27.93;17.20;;;;;;;;;;5092795;28;20446;-60
2021/04/01 04:13:22;;;;;;;25.17;17.70;;;;;;;;;;5092442;28;20452;-60
2021/04/01 04:15:49;;;;;;;25.63;18.00;;;;;;;;;;5091853;28;20469;-61
2021/04/01 04:18:16;;;;;;;26.47;18.30;;;;;;;;;;5091578;28;20446;-62
2021/04/01 04:20:42;;;;;;;24.50;16.57;;;;;;;;;;5091454;28;20442;-62
2021/04/01 04:23:13;;;;;;;28.60;17.50;;;;;;;;;;5090516;28;20457;-60
2021/04/01 04:25:39;;;;;;;30.87;20.10;;;;;;;;;;5090506;28;20565;-61
2021/04/01 04:28:17;;;;;;;31.57;19.23;;;;;;;;;;5090606;28;20503;-60
2021/04/01 04:30:44;;;;;;;31.67;19.10;;;;;;;;;;5092164;28;20423;-62
2021/04/01 04:33:11;;;;;;;31.80;20.40;;;;;;;;;;5093151;28;20438;-61
2021/04/01 04:35:38;;;;;;;30.00;20.37;;;;;;;;;;5091342;28;20469;-62
2021/04/01 04:38:04;;;;;;;29.17;19.57;;;;;;;;;;5090689;28;20507;-60
2021/04/01 04:40:32;;;;;;;27.03;17.53;;;;;;;;;;5091590;28;20446;-61
2021/04/01 04:42:59;;;;;;;30.87;19.00;;;;;;;;;;5091029;28;20446;-61
2021/04/01 04:45:26;;;;;;;32.50;18.40;;;;;;;;;;5090718;28;20469;-60
2021/04/01 04:47:53;;;;;;;29.57;19.23;;;;;;;;;;5090966;28;20482;-61
2021/04/01 04:50:19;;;;;;;33.00;20.40;;;;;;;;;;5090476;28;20439;-61
2021/04/01 04:52:46;;;;;;;28.50;19.90;;;;;;;;;;5091208;28;20446;-61
2021/04/01 04:55:13;;;;;;;28.07;19.13;;;;;;;;;;5090246;28;20454;-60
2021/04/01 04:57:46;;;;;;;29.73;19.43;;;;;;;;;;5090129;28;20482;-61
2021/04/01 05:05:42;;;;;;;29.83;20.87;;;;;;;;;;5090256;28;20560;-61
2021/04/01 05:08:09;;;;;;;28.20;19.83;;;;;;;;;;5089988;28;20427;-61
2021/04/01 05:10:36;;;;;;;29.60;20.77;;;;;;;;;;5090196;28;20442;-61
2021/04/01 05:13:10;;;;;;;27.87;19.80;;;;;;;;;;5090079;28;20447;-61
2021/04/01 05:15:41;;;;;;;35.90;19.70;;;;;;;;;;5089943;28;20512;-62
2021/04/01 05:18:17;;;;;;;28.90;19.70;;;;;;;;;;5082590;28;20439;-62
2021/04/01 05:20:44;;;;;;;30.20;19.70;;;;;;;;;;5076081;28;20430;-61
2021/04/01 05:23:17;;;;;;;27.60;18.87;;;;;;;;;;5076539;28;20443;-62
2021/04/01 05:25:43;;;;;;;28.07;19.73;;;;;;;;;;5076612;28;20554;-62
2021/04/01 05:28:20;;;;;;;33.70;20.63;;;;;;;;;;5076707;28;20450;-61
2021/04/01 05:30:47;;;;;;;32.13;19.00;;;;;;;;;;5076468;28;20431;-62
2021/04/01 05:33:15;;;;;;;30.33;20.10;;;;;;;;;;5076162;28;20444;-61
2021/04/01 05:35:41;;;;;;;31.30;21.47;;;;;;;;;;5077124;28;20477;-61
2021/04/01 05:38:08;;;;;;;33.90;20.17;;;;;;;;;;5075978;28;20451;-61
2021/04/01 05:40:35;;;;;;;29.90;20.37;;;;;;;;;;5075834;28;20450;-61
2021/04/01 05:43:05;;;;;;;32.80;21.13;;;;;;;;;;5081911;28;20446;-62
2021/04/01 05:45:42;;;;;;;30.93;20.20;;;;;;;;;;5080232;28;20467;-60
2021/04/01 05:48:16;;;;;;;30.57;20.70;;;;;;;;;;5077271;28;20426;-60
2021/04/01 05:50:53;;;;;;;32.43;22.00;;;;;;;;;;5079049;28;20427;-63
2021/04/01 05:59:30;;;;;;;31.20;21.90;;;;;;;;;;5033369;28;20430;-61
2021/04/01 06:04:45;;;;;;;33.37;21.50;;;;;;;;;;5073171;28;20947;-62
2021/04/01 06:07:17;;;;;;;30.40;22.20;;;;;;;;;;5076052;28;20482;-61
2021/04/01 06:09:48;;;;;;;30.93;21.37;;;;;;;;;;5075728;28;20428;-61
2021/04/01 06:12:15;;;;;;;32.40;21.37;;;;;;;;;;5075771;28;20526;-60
2021/04/01 06:15:04;;;;;;;31.07;22.43;;;;;;;;;;5076331;28;20463;-61
2021/04/01 06:17:32;;;;;;;33.17;20.93;;;;;;;;;;5071064;28;20970;-61
2021/04/01 06:20:00;;;;;;;33.37;22.87;;;;;;;;;;5075727;28;20443;-61
2021/04/01 06:22:27;;;;;;;34.60;22.30;;;;;;;;;;5075293;28;20446;-61
2021/04/01 06:24:55;;;;;;;34.30;23.40;;;;;;;;;;5075514;28;20487;-61
2021/04/01 06:27:24;;;;;;;34.43;23.50;;;;;;;;;;5075154;28;20443;-60
2021/04/01 06:32:41;;;;;;;35.10;22.90;;;;;;;;;;5074891;28;20553;-61
2021/04/01 06:35:13;;;;;;;40.27;23.00;;;;;;;;;;5074842;28;20474;-61
2021/04/01 06:37:57;;;;;;;34.90;24.87;;;;;;;;;;5074942;28;20482;-61
2021/04/01 06:40:24;;;;;;;40.00;23.83;;;;;;;;;;5075058;28;20942;-62
2021/04/01 06:42:54;;;;;;;39.43;24.40;;;;;;;;;;5075648;28;20450;-62
2021/04/01 06:45:23;;;;;;;39.93;25.50;;;;;;;;;;5075088;28;20490;-61
2021/04/01 06:47:51;;;;;;;44.10;26.23;;;;;;;;;;5074621;28;20486;-60
2021/04/01 06:50:22;;;;;;;31.90;23.00;;;;;;;;;;5074494;28;20439;-61
2021/04/01 06:52:59;;;;;;;37.30;23.70;;;;;;;;;;5074946;28;20428;-61
2021/04/01 06:55:29;;;;;;;36.93;23.40;;;;;;;;;;5074930;28;20520;-62
2021/04/01 06:58:05;;;;;;;37.63;25.23;;;;;;;;;;5074822;28;20443;-62
2021/04/01 07:00:41;;;;;;;39.40;25.70;;;;;;;;;;5074708;28;20513;-62
2021/04/01 07:03:14;;;;;;;38.80;24.90;;;;;;;;;;5075107;28;20431;-61
2021/04/01 07:05:49;;;;;;;35.20;25.10;;;;;;;;;;5074728;28;20478;-60
2021/04/01 07:08:19;;;;;;;40.23;26.03;;;;;;;;;;5074771;28;20826;-63
2021/04/01 07:10:53;;;;;;;37.60;26.20;;;;;;;;;;5075146;28;20443;-61
2021/04/01 07:13:24;;;;;;;40.87;26.43;;;;;;;;;;5075796;28;20431;-62
2021/04/01 07:15:54;;;;;;;37.83;24.03;;;;;;;;;;5075428;28;20491;-61
2021/04/01 07:18:31;;;;;;;37.30;24.90;;;;;;;;;;5074828;28;20530;-62
2021/04/01 07:32:35;;;;;;;39.43;26.10;;;;;;;;;;5077172;28;20946;-62
2021/04/01 07:35:41;;;;;;;40.87;25.87;;;;;;;;;;5075725;28;20459;-61
2021/04/01 07:46:32;;;;;;;39.00;27.73;;;;;;;;;;5073810;28;20542;-60
2021/04/01 07:49:02;;;;;;;38.33;26.03;;;;;;;;;;5074907;28;20504;-61
2021/04/01 07:51:51;;;;;;;39.57;27.60;;;;;;;;;;5073882;28;20911;-62
2021/04/01 07:54:25;;;;;;;36.80;27.10;;;;;;;;;;5074394;28;20555;-61
2021/04/01 07:57:03;;;;;;;39.70;28.87;;;;;;;;;;5073714;28;20419;-62
2021/04/01 07:59:33;;;;;;;43.57;27.83;;;;;;;;;;5073740;28;20432;-61
2021/04/01 08:02:11;;;;;;;43.10;27.63;;;;;;;;;;5073942;28;20509;-62
2021/04/01 08:04:42;;;;;;;40.50;29.02;;;;;;;;;;5073766;28;20483;-62
2021/04/01 08:07:12;;;;;;;44.23;29.30;;;;;;;;;;5073130;28;20700;-60
2021/04/01 08:09:40;;;;;;;42.63;29.87;;;;;;;;;;5073287;28;20456;-62
2021/04/01 08:12:12;;;;;;;40.17;28.50;;;;;;;;;;5073337;28;20542;-62
2021/04/01 08:14:42;;;;;;;53.13;32.27;;;;;;;;;;5073169;28;20470;-61
2021/04/01 08:17:15;;;;;;;45.07;31.03;;;;;;;;;;5073280;28;20439;-62
2021/04/01 08:19:41;;;;;;;53.80;32.17;;;;;;;;;;5073205;28;20431;-60
2021/04/01 08:22:13;;;;;;;47.43;31.17;;;;;;;;;;5073323;28;20439;-62
2021/04/01 08:24:44;;;;;;;45.17;30.50;;;;;;;;;;5073124;28;20467;-62
2021/04/01 08:27:19;;;;;;;51.33;33.63;;;;;;;;;;5072927;28;20514;-62
2021/04/01 08:32:48;;;;;;;49.70;32.80;;;;;;;;;;5073171;28;20515;-63
2021/04/01 08:35:15;;;;;;;45.13;31.47;;;;;;;;;;5072723;28;20553;-62
2021/04/01 08:37:51;;;;;;;52.27;35.03;;;;;;;;;;5072476;28;20442;-62
2021/04/01 08:40:19;;;;;;;49.80;32.93;;;;;;;;;;5072524;28;20427;-61
2021/04/01 08:43:03;;;;;;;49.73;32.63;;;;;;;;;;5072814;28;20450;-62
2021/04/01 08:45:45;;;;;;;52.30;35.40;;;;;;;;;;5072650;28;20462;-61
2021/04/01 08:48:14;;;;;;;52.50;33.23;;;;;;;;;;5072950;28;20459;-61
2021/04/01 08:50:49;;;;;;;46.97;33.47;;;;;;;;;;5073214;28;20447;-62
2021/04/01 08:53:33;;;;;;;54.90;33.50;;;;;;;;;;5074748;28;20517;-61
2021/04/01 08:56:15;;;;;;;50.13;34.23;;;;;;;;;;5076962;28;20466;-62
2021/04/01 08:58:43;;;;;;;52.70;33.50;;;;;;;;;;5078193;28;20441;-61
2021/04/01 09:01:15;;;;;;;52.43;34.77;;;;;;;;;;5078438;28;20492;-62
2021/04/01 09:03:42;;;;;;;52.73;34.80;;;;;;;;;;5078744;28;20431;-62
2021/04/01 09:06:10;;;;;;;55.90;34.67;;;;;;;;;;5077523;28;20851;-61
2021/04/01 09:08:39;;;;;;;60.57;36.87;;;;;;;;;;5078686;28;20424;-62
2021/04/01 09:11:09;;;;;;;60.00;37.60;;;;;;;;;;5077507;28;20446;-62
2021/04/01 09:13:39;;;;;;;54.60;35.13;;;;;;;;;;5077300;28;20962;-62
2021/04/01 09:16:19;;;;;;;61.03;36.70;;;;;;;;;;5077568;28;20576;-62
2021/04/01 09:18:46;;;;;;;56.20;36.70;;;;;;;;;;5078011;28;20431;-61
2021/04/01 09:21:14;;;;;;;56.17;36.50;;;;;;;;;;5076858;28;20469;-61
2021/04/01 09:23:41;;;;;;;60.67;36.20;;;;;;;;;;5084980;28;20499;-62
2021/04/01 09:26:10;;;;;;;65.13;38.17;;;;;;;;;;5077522;28;20462;-61
2021/04/01 09:28:38;;;;;;;62.23;38.83;;;;;;;;;;5076722;28;20484;-61
2021/04/01 09:31:06;;;;;;;63.27;37.73;;;;;;;;;;5076392;28;20495;-62
2021/04/01 09:33:33;;;;;;;62.60;39.63;;;;;;;;;;5076212;28;20822;-62
2021/04/01 09:36:07;;;;;;;71.57;41.27;;;;;;;;;;5076361;28;20471;-61
2021/04/01 09:38:37;;;;;;;57.93;36.80;;;;;;;;;;5076127;28;20447;-62
2021/04/01 09:41:03;;;;;;;60.07;37.47;;;;;;;;;;5075776;28;20482;-60
2021/04/01 09:43:31;;;;;;;61.37;37.70;;;;;;;;;;5076452;28;20536;-62
2021/04/01 09:46:08;;;;;;;60.30;38.73;;;;;;;;;;5075768;28;20462;-62
2021/04/01 09:48:37;;;;;;;62.97;37.77;;;;;;;;;;5076021;28;20778;-62
2021/04/01 09:51:16;;;;;;;58.90;37.83;;;;;;;;;;5075570;28;20819;-63
2021/04/01 09:53:50;;;;;;;65.97;40.00;;;;;;;;;;5075445;28;20518;-62
2021/04/01 09:56:21;;;;;;;57.67;37.53;;;;;;;;;;5076029;28;20502;-63
2021/04/01 09:58:51;;;;;;;62.87;39.47;;;;;;;;;;5075387;28;20439;-61
2021/04/01 10:01:28;;;;;;;65.20;40.07;;;;;;;;;;5075064;28;20542;-61
2021/04/01 10:04:03;;;;;;;64.20;41.07;;;;;;;;;;5074961;28;20919;-62
2021/04/01 10:06:36;;;;;;;70.17;39.23;;;;;;;;;;5075187;28;20482;-61
2021/04/01 10:09:09;;;;;;;66.27;41.00;;;;;;;;;;5075197;28;20442;-62
2021/04/01 10:11:38;;;;;;;71.27;42.20;;;;;;;;;;5074838;28;20935;-61
2021/04/01 10:14:07;;;;;;;63.23;40.10;;;;;;;;;;5075379;28;20475;-61
2021/04/01 10:16:34;;;;;;;66.17;39.67;;;;;;;;;;5074431;28;20935;-62
2021/04/01 10:19:02;;;;;;;61.57;40.53;;;;;;;;;;5074988;28;20539;-61
2021/04/01 10:21:28;;;;;;;68.07;42.60;;;;;;;;;;5075394;28;20995;-60
2021/04/01 10:23:56;;;;;;;69.30;39.20;;;;;;;;;;5074807;28;20446;-60
2021/04/01 10:26:25;;;;;;;73.50;42.63;;;;;;;;;;5074931;28;20483;-62
2021/04/01 10:29:03;;;;;;;64.40;39.70;;;;;;;;;;5083465;28;20454;-62
2021/04/01 10:31:31;;;;;;;71.57;42.20;;;;;;;;;;5083265;28;20433;-62
2021/04/01 10:34:14;;;;;;;65.33;42.03;;;;;;;;;;5076411;28;20454;-63
2021/04/01 10:36:42;;;;;;;70.83;42.20;;;;;;;;;;5077962;28;20504;-61
2021/04/01 10:39:10;;;;;;;69.00;41.10;;;;;;;;;;5075150;28;20479;-61
2021/04/01 10:41:46;;;;;;;66.13;42.50;;;;;;;;;;5075951;28;20447;-61
2021/04/01 10:44:13;;;;;;;70.27;43.67;;;;;;;;;;5074402;28;20970;-63
2021/04/01 10:46:43;;;;;;;69.90;43.03;;;;;;;;;;5077452;28;20478;-61
2021/04/01 10:49:11;;;;;;;75.60;43.07;;;;;;;;;;5082722;28;20445;-61
2021/04/01 10:51:38;;;;;;;69.23;42.63;;;;;;;;;;5082728;28;20486;-60
2021/04/01 10:54:10;;;;;;;65.63;39.63;;;;;;;;;;5085949;28;20991;-63
2021/04/01 10:56:46;;;;;;;61.57;39.13;;;;;;;;;;5078311;28;20419;-60
2021/04/01 10:59:12;;;;;;;61.07;40.80;;;;;;;;;;5080774;28;20446;-62
2021/04/01 11:01:40;;;;;;;63.23;41.00;;;;;;;;;;5086226;28;20449;-61
2021/04/01 11:04:07;;;;;;;71.13;43.90;;;;;;;;;;5086169;28;20467;-60
2021/04/01 11:06:34;;;;;;;66.97;44.10;;;;;;;;;;5079170;28;20478;-61
2021/04/01 11:09:01;;;;;;;64.00;42.43;;;;;;;;;;5077381;28;20444;-61
2021/04/01 11:11:35;;;;;;;73.20;44.70;;;;;;;;;;5076574;28;20447;-61
2021/04/01 11:14:02;;;;;;;61.13;40.50;;;;;;;;;;5078282;28;20434;-61
2021/04/01 11:16:30;;;;;;;52.43;34.10;;;;;;;;;;5086509;28;20443;-62
2021/04/01 11:18:57;;;;;;;50.50;32.40;;;;;;;;;;5078080;28;20930;-61
2021/04/01 11:21:27;;;;;;;51.53;32.80;;;;;;;;;;5077260;28;20446;-61
2021/04/01 11:23:54;;;;;;;44.67;28.80;;;;;;;;;;5077442;28;20443;-61
2021/04/01 11:26:26;;;;;;;43.47;30.53;;;;;;;;;;5078743;28;20447;-62
2021/04/01 11:28:54;;;;;;;38.33;26.23;;;;;;;;;;5082398;28;20527;-61
2021/04/01 11:31:24;;;;;;;38.23;26.57;;;;;;;;;;5083233;28;20442;-62
2021/04/01 11:33:52;;;;;;;38.13;26.90;;;;;;;;;;5083519;28;20447;-61
2021/04/01 11:36:20;;;;;;;39.20;26.97;;;;;;;;;;5084087;28;20465;-61
2021/04/01 11:38:50;;;;;;;37.43;23.70;;;;;;;;;;5083191;28;20538;-62
2021/04/01 11:41:17;;;;;;;37.57;24.67;;;;;;;;;;5081453;28;20447;-62
2021/04/01 11:43:44;;;;;;;35.30;23.00;;;;;;;;;;5079236;28;20977;-61
2021/04/01 11:46:15;;;;;;;30.60;20.60;;;;;;;;;;5079345;28;20439;-61
2021/04/01 11:48:42;;;;;;;32.47;21.77;;;;;;;;;;5079948;28;20454;-61
2021/04/01 11:51:11;;;;;;;23.70;16.43;;;;;;;;;;5074352;28;20439;-62
2021/04/01 11:53:41;;;;;;;22.10;14.50;;;;;;;;;;5074243;28;20442;-61
2021/04/01 11:56:08;;;;;;;23.53;14.10;;;;;;;;;;5074963;28;20532;-61
2021/04/01 11:58:35;;;;;;;16.67;11.67;;;;;;;;;;5074093;28;20981;-63
2021/04/01 12:01:03;;;;;;;18.70;11.43;;;;;;;;;;5074729;28;20800;-62
2021/04/01 12:03:37;;;;;;;16.80;9.87;;;;;;;;;;5073450;28;20473;-62
2021/04/01 12:06:04;;;;;;;15.17;8.93;;;;;;;;;;5073211;28;20501;-61
2021/04/01 12:08:31;;;;;;;12.87;6.03;;;;;;;;;;5073038;28;20478;-62
2021/04/01 12:10:58;;;;;;;11.30;6.53;;;;;;;;;;5075035;28;20446;-62
2021/04/01 12:13:26;;;;;;;13.93;7.47;;;;;;;;;;5076249;28;20438;-60
2021/04/01 12:15:53;;;;;;;11.20;5.93;;;;;;;;;;5074863;28;20467;-62
2021/04/01 12:18:20;;;;;;;10.80;5.70;;;;;;;;;;5074668;28;20465;-61
2021/04/01 12:20:47;;;;;;;12.30;4.97;;;;;;;;;;5073411;28;20966;-62
2021/04/01 12:23:15;;;;;;;9.33;4.90;;;;;;;;;;5073489;28;20447;-62
2021/04/01 12:25:43;;;;;;;10.27;5.00;;;;;;;;;;5073330;28;20474;-61
2021/04/01 12:28:17;;;;;;;10.40;4.37;;;;;;;;;;5074663;28;20479;-62
2021/04/01 12:30:47;;;;;;;8.13;3.90;;;;;;;;;;5077137;28;20801;-61
2021/04/01 12:33:17;;;;;;;7.97;3.77;;;;;;;;;;5078280;28;20454;-61
2021/04/01 12:35:51;;;;;;;11.33;4.50;;;;;;;;;;5077073;28;20475;-61
2021/04/01 12:38:26;;;;;;;5.00;3.40;;;;;;;;;;5076841;28;20438;-62
2021/04/01 12:40:52;;;;;;;5.00;3.20;;;;;;;;;;5077028;28;20442;-62
2021/04/01 12:43:19;;;;;;;4.70;2.90;;;;;;;;;;5077305;28;20443;-60
2021/04/01 12:45:55;;;;;;;7.53;3.03;;;;;;;;;;5076839;28;20471;-61
2021/04/01 12:48:21;;;;;;;3.90;2.60;;;;;;;;;;5076357;28;20459;-61
2021/04/01 12:50:50;;;;;;;6.50;2.70;;;;;;;;;;5076248;28;20446;-61
2021/04/01 12:53:18;;;;;;;4.13;3.10;;;;;;;;;;5076510;28;20500;-61
2021/04/01 12:55:47;;;;;;;5.37;2.60;;;;;;;;;;5076471;28;20532;-63
2021/04/01 12:58:24;;;;;;;6.03;2.93;;;;;;;;;;5076734;28;20450;-62
2021/04/01 13:00:55;;;;;;;3.67;2.60;;;;;;;;;;5076304;28;20446;-62
2021/04/01 13:03:23;;;;;;;5.43;3.07;;;;;;;;;;5080303;28;20448;-62
2021/04/01 13:05:53;;;;;;;5.00;3.50;;;;;;;;;;5087324;28;20485;-61
2021/04/01 13:11:07;;;;;;;5.37;3.10;;;;;;;;;;5073265;28;20864;-62
2021/04/01 13:13:33;;;;;;;7.53;3.70;;;;;;;;;;5077344;28;20947;-61
2021/04/01 13:16:00;;;;;;;4.80;3.50;;;;;;;;;;5076670;28;20467;-62
2021/04/01 13:18:28;;;;;;;10.60;3.50;;;;;;;;;;5079196;28;20788;-61
2021/04/01 13:20:55;;;;;;;8.37;3.90;;;;;;;;;;5078350;28;20431;-62
2021/04/01 13:23:40;;;;;;;4.73;3.20;;;;;;;;;;5075870;28;20439;-62
2021/04/01 13:26:07;;;;;;;10.80;3.20;;;;;;;;;;5076944;28;20474;-61
2021/04/01 13:28:34;;;;;;;9.57;2.90;;;;;;;;;;5076230;28;20482;-62
2021/04/01 13:31:02;;;;;;;7.70;2.70;;;;;;;;;;5076041;28;20446;-62
2021/04/01 13:36:17;;;;;;;4.43;2.00;;;;;;;;;;5074137;28;20616;-60
2021/04/01 13:38:44;;;;;;;5.00;2.50;;;;;;;;;;5076647;28;20452;-63
2021/04/01 13:41:12;;;;;;;6.13;2.30;;;;;;;;;;5076288;28;20443;-62
2021/04/01 13:43:39;;;;;;;5.53;2.37;;;;;;;;;;5075285;28;20451;-62
2021/04/01 13:46:06;;;;;;;4.03;1.97;;;;;;;;;;5075791;28;20463;-61
2021/04/01 13:48:34;;;;;;;4.03;1.70;;;;;;;;;;5076078;28;20544;-62
2021/04/01 13:51:07;;;;;;;5.90;2.37;;;;;;;;;;5075871;28;20454;-62
2021/04/01 13:53:44;;;;;;;4.77;2.10;;;;;;;;;;5075476;28;20483;-62
2021/04/01 13:56:17;;;;;;;3.20;1.97;;;;;;;;;;5075775;28;20439;-61
2021/04/01 14:08:52;;;;;;;2.33;2.10;;;;;;;;;;5075877;28;20436;-62
2021/04/01 14:09:57;;;;;;;2.57;2.00;;;;;;;;;;5076988;28;20922;-62
2021/04/01 14:12:25;;;;;;;5.90;2.10;;;;;;;;;;5075846;28;20451;-61
2021/04/01 14:14:52;;;;;;;6.27;2.40;;;;;;;;;;5076266;28;20565;-61
2021/04/01 14:17:19;;;;;;;5.50;2.30;;;;;;;;;;5075320;28;20450;-61
2021/04/01 14:19:46;;;;;;;4.57;2.23;;;;;;;;;;5075317;28;20439;-61
2021/04/01 14:22:14;;;;;;;6.07;2.17;;;;;;;;;;5075703;28;20447;-62
2021/04/01 14:24:42;;;;;;;2.57;2.07;;;;;;;;;;5075829;28;20970;-63
2021/04/01 14:27:11;;;;;;;2.27;1.83;;;;;;;;;;5075133;28;20645;-62
2021/04/01 14:29:39;;;;;;;3.43;2.17;;;;;;;;;;5075079;28;20439;-60
2021/04/01 14:32:07;;;;;;;3.27;1.90;;;;;;;;;;5074974;28;20508;-61
2021/04/01 14:34:35;;;;;;;4.10;2.30;;;;;;;;;;5075210;28;20507;-63
2021/04/01 14:37:03;;;;;;;4.07;2.63;;;;;;;;;;5074877;28;20447;-62
2021/04/01 14:39:31;;;;;;;4.13;2.60;;;;;;;;;;5074543;28;20943;-62
2021/04/01 14:42:00;;;;;;;2.60;2.23;;;;;;;;;;5074318;28;20521;-62
2021/04/01 14:44:27;;;;;;;3.23;2.50;;;;;;;;;;5074254;28;20995;-63
2021/04/01 14:46:54;;;;;;;3.10;2.43;;;;;;;;;;5074334;28;20479;-62
2021/04/01 14:49:22;;;;;;;3.20;2.00;;;;;;;;;;5074280;28;20443;-61
2021/04/01 14:51:49;;;;;;;3.17;2.30;;;;;;;;;;5073598;28;20446;-62
2021/04/01 14:54:18;;;;;;;3.90;2.53;;;;;;;;;;5074488;28;20475;-62
2021/04/01 14:56:47;;;;;;;4.40;1.90;;;;;;;;;;5075340;28;20500;-62
2021/04/01 14:59:17;;;;;;;4.10;2.30;;;;;;;;;;5074848;28;20512;-62
2021/04/01 15:01:45;;;;;;;5.13;2.20;;;;;;;;;;5074875;28;20461;-62
2021/04/01 15:04:12;;;;;;;4.17;2.63;;;;;;;;;;5074499;28;20459;-63
2021/04/01 15:06:39;;;;;;;3.70;2.13;;;;;;;;;;5074277;28;20951;-61
2021/04/01 15:09:06;;;;;;;2.27;1.77;;;;;;;;;;5074821;28;20447;-62
2021/04/01 15:11:34;;;;;;;2.73;1.90;;;;;;;;;;5074550;28;20450;-63
2021/04/01 15:14:01;;;;;;;5.10;1.83;;;;;;;;;;5073774;28;20589;-60
2021/04/01 15:16:27;;;;;;;3.80;1.73;;;;;;;;;;5073931;28;20443;-62
2021/04/01 15:18:55;;;;;;;4.23;2.47;;;;;;;;;;5074136;28;20439;-62
2021/04/01 15:21:22;;;;;;;2.20;2.00;;;;;;;;;;5074424;28;20633;-64
2021/04/01 15:23:49;;;;;;;2.67;2.43;;;;;;;;;;5074202;28;20442;-61
2021/04/01 15:26:16;;;;;;;7.97;1.80;;;;;;;;;;5074451;28;20451;-61
2021/04/01 15:28:43;;;;;;;3.23;1.60;;;;;;;;;;5073574;28;20478;-63
2021/04/01 15:31:11;;;;;;;3.03;1.80;;;;;;;;;;5074016;28;20490;-60
2021/04/01 15:33:38;;;;;;;2.07;1.70;;;;;;;;;;5073738;28;20457;-62
2021/04/01 15:36:05;;;;;;;2.50;1.57;;;;;;;;;;5073492;28;20463;-61
2021/04/01 15:38:32;;;;;;;1.90;1.80;;;;;;;;;;5074726;28;20443;-61